Time;durP1;ratioP1;P1;durP2;ratioP2;P2;SDS_P1;SDS_P2;PMS_P1;PMS_P2;Temp;Humidity;BMP_temperature;BMP_pressure;BME280_temperature;BME280_humidity;BME280_pressure;Samples;Min_cycle;Max_cycle;Signal;HPM_P1;HPM_P2
2023/10/27 00:02:15;;;;;;;6.90;3.70;;;;;;;7.14;100.00;98546.45;105460;1257;69176;-60
2023/10/27 00:04:44;;;;;;;9.60;2.90;;;;;;;7.09;100.00;98545.69;105484;1257;69194;-60
2023/10/27 00:07:12;;;;;;;4.20;3.00;;;;;;;6.99;100.00;98541.36;105491;1257;72899;-60
2023/10/27 00:09:41;;;;;;;5.00;2.70;;;;;;;6.91;100.00;98532.40;105459;1260;83698;-60
2023/10/27 00:12:10;;;;;;;5.30;2.90;;;;;;;6.86;100.00;98526.76;105485;1257;72141;-60
2023/10/27 00:14:38;;;;;;;3.70;2.20;;;;;;;6.82;100.00;98531.14;105427;1257;69254;-60
2023/10/27 00:17:06;;;;;;;16.00;8.80;;;;;;;6.73;100.00;98532.11;105483;1259;69200;-60
2023/10/27 00:19:34;;;;;;;29.30;13.00;;;;;;;6.70;100.00;98539.52;105462;1259;73315;-61
2023/10/27 00:22:03;;;;;;;30.10;13.10;;;;;;;6.69;100.00;98532.81;105461;1257;81754;-60
2023/10/27 00:24:32;;;;;;;29.00;13.60;;;;;;;6.67;100.00;98527.39;105465;1255;72797;-60
2023/10/27 00:26:59;;;;;;;29.00;13.60;;;;;;;6.63;100.00;98527.91;105418;1258;69169;-60
2023/10/27 00:29:28;;;;;;;27.70;12.60;;;;;;;6.56;100.00;98530.73;105500;1259;69131;-60
2023/10/27 00:31:56;;;;;;;8.80;5.60;;;;;;;6.55;100.00;98530.96;105450;1257;72949;-60
2023/10/27 00:34:24;;;;;;;8.50;5.70;;;;;;;6.59;100.00;98529.18;105419;1258;81607;-60
2023/10/27 00:36:52;;;;;;;5.80;3.50;;;;;;;6.55;100.00;98530.77;105418;1257;71627;-60
2023/10/27 00:39:21;;;;;;;5.30;3.00;;;;;;;6.55;100.00;98530.77;105440;1256;69181;-60
2023/10/27 00:41:49;;;;;;;4.50;3.20;;;;;;;6.51;100.00;98529.73;105415;1257;69236;-60
2023/10/27 00:44:17;;;;;;;4.80;2.60;;;;;;;6.46;100.00;98529.66;105469;1255;74165;-61
2023/10/27 00:46:45;;;;;;;4.00;2.80;;;;;;;6.40;100.00;98529.25;105467;1257;81412;-61
2023/10/27 00:49:14;;;;;;;8.30;3.50;;;;;;;6.33;100.00;98530.30;105478;1254;72823;-60
2023/10/27 00:51:46;;;;;;;4.50;2.90;;;;;;;6.31;100.00;98529.39;105467;1257;69208;-60
2023/10/27 00:54:15;;;;;;;6.00;3.70;;;;;;;6.29;100.00;98528.95;105533;1257;69187;-60
2023/10/27 00:56:44;;;;;;;9.00;2.80;;;;;;;6.33;100.00;98526.98;105502;1254;71706;-60
2023/10/27 00:59:13;;;;;;;5.20;2.40;;;;;;;6.30;100.00;98527.69;105477;1256;80505;-60
2023/10/27 01:01:44;;;;;;;4.10;2.70;;;;;;;6.22;100.00;98521.96;105499;1258;71775;-60
2023/10/27 01:04:12;;;;;;;8.20;2.90;;;;;;;6.19;100.00;98523.38;105429;1257;69129;-60
2023/10/27 01:06:41;;;;;;;4.50;2.70;;;;;;;6.14;100.00;98522.77;105430;1259;69193;-60
2023/10/27 01:09:10;;;;;;;4.60;3.00;;;;;;;6.08;100.00;98521.84;105498;1262;72635;-60
2023/10/27 01:11:38;;;;;;;10.40;3.80;;;;;;;6.02;100.00;98521.73;105453;1258;81337;-60
2023/10/27 01:14:06;;;;;;;4.90;2.80;;;;;;;6.02;100.00;98522.48;105386;1257;72943;-60
2023/10/27 01:16:34;;;;;;;5.90;3.40;;;;;;;5.98;100.00;98518.45;105465;1254;69142;-60
2023/10/27 01:19:03;;;;;;;6.90;3.10;;;;;;;5.97;100.00;98514.88;105519;1256;69230;-60
2023/10/27 01:21:31;;;;;;;4.40;2.90;;;;;;;5.95;100.00;98509.59;105430;1257;73214;-60
2023/10/27 01:23:59;;;;;;;4.80;2.90;;;;;;;5.98;100.00;98505.64;105463;1256;82491;-61
2023/10/27 01:26:27;;;;;;;4.30;3.00;;;;;;;5.97;100.00;98501.86;105400;1259;71664;-63
2023/10/27 01:28:55;;;;;;;7.60;3.60;;;;;;;5.91;100.00;98498.35;105389;1255;69155;-58
2023/10/27 01:31:25;;;;;;;5.20;3.50;;;;;;;5.85;100.00;98499.02;105408;1257;69177;-59
2023/10/27 01:33:53;;;;;;;4.80;3.30;;;;;;;5.79;100.00;98498.21;105474;1254;72608;-59
2023/10/27 01:36:21;;;;;;;7.20;3.70;;;;;;;5.73;100.00;98498.02;105477;1253;81486;-59
2023/10/27 01:38:50;;;;;;;5.60;3.60;;;;;;;5.71;100.00;98494.45;105580;1254;70923;-59
2023/10/27 01:41:18;;;;;;;5.60;3.50;;;;;;;5.68;100.00;98488.17;105403;1257;69542;-59
2023/10/27 01:43:46;;;;;;;8.70;3.60;;;;;;;5.64;100.00;98481.61;105449;1258;69189;-59
2023/10/27 01:46:16;;;;;;;4.50;3.10;;;;;;;5.61;100.00;98467.57;105457;1255;73075;-59
2023/10/27 01:48:44;;;;;;;4.60;2.80;;;;;;;5.57;100.00;98467.57;105449;1256;82699;-59
2023/10/27 01:51:12;;;;;;;6.90;3.60;;;;;;;5.52;100.00;98472.64;105413;1258;72223;-59
2023/10/27 01:53:40;;;;;;;10.60;4.00;;;;;;;5.48;100.00;98476.66;105416;1254;69096;-59
2023/10/27 01:56:09;;;;;;;10.90;5.30;;;;;;;5.46;100.00;98473.62;105458;1256;69125;-59
2023/10/27 01:58:40;;;;;;;8.40;4.50;;;;;;;5.44;100.00;98460.55;105415;1254;72844;-59
2023/10/27 02:01:08;;;;;;;11.70;5.10;;;;;;;5.41;100.00;98451.67;105461;1257;81475;-59
2023/10/27 02:03:36;;;;;;;9.50;5.40;;;;;;;5.37;100.00;98452.41;105430;1254;72081;-59
2023/10/27 02:06:04;;;;;;;9.40;5.00;;;;;;;5.34;100.00;98453.04;105515;1257;69114;-59
2023/10/27 02:08:35;;;;;;;11.30;5.60;;;;;;;5.32;100.00;98453.13;105429;1257;69159;-59
2023/10/27 02:11:03;;;;;;;15.10;5.90;;;;;;;5.31;100.00;98453.55;105491;1255;72629;-59
2023/10/27 02:13:32;;;;;;;9.80;5.30;;;;;;;5.31;100.00;98454.58;105515;1257;82724;-60
2023/10/27 02:16:00;;;;;;;10.20;5.40;;;;;;;5.32;100.00;98452.81;105414;1257;72991;-60
2023/10/27 02:18:28;;;;;;;13.30;5.80;;;;;;;5.29;100.00;98444.80;105383;1257;69262;-60
2023/10/27 02:20:56;;;;;;;11.20;5.50;;;;;;;5.26;100.00;98445.11;105318;1254;69181;-61
2023/10/27 02:23:26;;;;;;;12.00;5.10;;;;;;;5.25;100.00;98443.08;105397;1260;73170;-60
2023/10/27 02:25:54;;;;;;;9.50;4.80;;;;;;;5.24;100.00;98437.60;105454;1255;82368;-61
2023/10/27 02:28:22;;;;;;;11.20;5.10;;;;;;;5.21;100.00;98436.19;105343;1254;71636;-60
2023/10/27 02:30:50;;;;;;;11.60;5.00;;;;;;;5.16;100.00;98434.17;105173;1257;69147;-61
2023/10/27 02:33:19;;;;;;;10.70;5.00;;;;;;;5.13;100.00;98438.44;105342;1257;69107;-60
2023/10/27 02:35:47;;;;;;;15.00;5.10;;;;;;;5.12;100.00;98435.02;105280;1257;72581;-60
2023/10/27 02:38:16;;;;;;;8.00;4.60;;;;;;;5.10;100.00;98437.91;105322;1258;81399;-60
2023/10/27 02:40:45;;;;;;;7.90;4.50;;;;;;;5.07;100.00;98439.92;105327;1257;72084;-61
2023/10/27 02:43:13;;;;;;;7.90;4.40;;;;;;;5.06;100.00;98441.70;105354;1257;69123;-61
2023/10/27 02:45:42;;;;;;;7.60;4.50;;;;;;;5.03;100.00;98440.98;105404;1255;69139;-60
2023/10/27 02:48:10;;;;;;;9.00;5.00;;;;;;;5.00;100.00;98440.60;105392;1254;72722;-60
2023/10/27 02:50:39;;;;;;;7.70;4.70;;;;;;;5.00;100.00;98437.69;105350;1257;82904;-61
2023/10/27 02:53:09;;;;;;;9.80;5.20;;;;;;;4.99;100.00;98435.98;105374;1254;72815;-60
2023/10/27 02:55:37;;;;;;;6.90;4.20;;;;;;;4.96;100.00;98433.38;105357;1260;69305;-60
2023/10/27 02:58:06;;;;;;;9.20;4.10;;;;;;;4.92;100.00;98435.79;105386;1257;69150;-60
2023/10/27 03:00:34;;;;;;;11.40;4.50;;;;;;;4.89;100.00;98437.98;105450;1254;71716;-60
2023/10/27 03:03:02;;;;;;;8.40;4.10;;;;;;;4.87;100.00;98443.76;105347;1257;82027;-60
2023/10/27 03:05:30;;;;;;;8.10;4.90;;;;;;;4.89;100.00;98439.91;105420;1257;71672;-60
2023/10/27 03:07:59;;;;;;;7.80;4.90;;;;;;;4.90;100.00;98438.30;105334;1257;69154;-60
2023/10/27 03:10:27;;;;;;;7.20;4.20;;;;;;;4.91;100.00;98443.77;105396;1254;69285;-61
2023/10/27 03:12:55;;;;;;;8.90;4.20;;;;;;;4.92;100.00;98447.20;105397;1254;73807;-60
2023/10/27 03:15:24;;;;;;;10.60;4.90;;;;;;;4.95;100.00;98451.91;105491;1254;83324;-60
2023/10/27 03:17:52;;;;;;;5.90;4.10;;;;;;;5.01;100.00;98455.97;105358;1257;71399;-61
2023/10/27 03:20:20;;;;;;;6.10;3.90;;;;;;;5.06;100.00;98460.25;105406;1259;69241;-60
2023/10/27 03:22:48;;;;;;;6.50;4.00;;;;;;;5.12;100.00;98461.33;105484;1257;69143;-60
2023/10/27 03:25:16;;;;;;;6.30;3.90;;;;;;;5.16;100.00;98460.11;105336;1257;73097;-60
2023/10/27 03:27:45;;;;;;;7.10;3.80;;;;;;;5.22;100.00;98459.01;105447;1257;81926;-61
2023/10/27 03:30:13;;;;;;;6.00;3.80;;;;;;;5.28;100.00;98459.75;105420;1253;72171;-60
2023/10/27 03:32:41;;;;;;;6.40;4.20;;;;;;;5.33;100.00;98459.13;105435;1257;69078;-60
2023/10/27 03:35:10;;;;;;;8.40;4.70;;;;;;;5.40;100.00;98460.90;105437;1257;69129;-60
2023/10/27 03:37:38;;;;;;;9.00;4.90;;;;;;;5.46;100.00;98463.94;105436;1254;72852;-60
2023/10/27 03:40:07;;;;;;;6.40;4.10;;;;;;;5.50;100.00;98466.69;105430;1257;81605;-60
2023/10/27 03:42:36;;;;;;;7.30;4.40;;;;;;;5.54;100.00;98468.91;105494;1254;71735;-60
2023/10/27 03:45:05;;;;;;;8.60;5.90;;;;;;;5.58;100.00;98467.16;105512;1254;69132;-60
2023/10/27 03:47:33;;;;;;;20.20;11.50;;;;;;;5.65;100.00;98462.86;105516;1255;69074;-60
2023/10/27 03:50:02;;;;;;;12.40;8.30;;;;;;;5.70;100.00;98464.86;105493;1254;73927;-61
2023/10/27 03:52:30;;;;;;;15.50;9.10;;;;;;;5.75;100.00;98461.14;105462;1257;82768;-60
2023/10/27 03:54:59;;;;;;;7.40;4.80;;;;;;;5.81;100.00;98455.67;105439;1253;71346;-60
2023/10/27 03:57:27;;;;;;;10.20;6.10;;;;;;;5.86;100.00;98454.92;105430;1257;69309;-61
2023/10/27 03:59:55;;;;;;;12.60;7.00;;;;;;;5.90;100.00;98457.31;105422;1257;69131;-60
2023/10/27 04:02:23;;;;;;;22.70;9.60;;;;;;;5.93;100.00;98450.06;105515;1257;73552;-60
2023/10/27 04:04:52;;;;;;;22.10;9.10;;;;;;;5.96;100.00;98449.25;105472;1257;81738;-60
2023/10/27 04:07:20;;;;;;;15.10;7.60;;;;;;;5.99;100.00;98447.37;105450;1258;71769;-60
2023/10/27 04:09:48;;;;;;;12.50;6.80;;;;;;;6.02;100.00;98444.59;105413;1256;69104;-61
2023/10/27 04:12:16;;;;;;;15.10;7.70;;;;;;;6.06;100.00;98447.23;105468;1254;69120;-60
2023/10/27 04:14:45;;;;;;;11.10;6.20;;;;;;;6.09;100.00;98445.83;105478;1254;75077;-60
2023/10/27 04:17:13;;;;;;;7.40;5.10;;;;;;;6.14;100.00;98436.21;105465;1255;82866;-60
2023/10/27 04:19:43;;;;;;;8.90;5.30;;;;;;;6.17;100.00;98436.58;105439;1255;71754;-61
2023/10/27 04:22:11;;;;;;;8.60;5.00;;;;;;;6.18;100.00;98435.13;105498;1254;69399;-60
2023/10/27 04:24:40;;;;;;;8.70;4.60;;;;;;;6.19;100.00;98431.83;105456;1256;69165;-61
2023/10/27 04:27:08;;;;;;;7.80;4.90;;;;;;;6.21;100.00;98434.82;105488;1255;71831;-61
2023/10/27 04:29:36;;;;;;;13.00;5.80;;;;;;;6.24;100.00;98434.30;105535;1254;80322;-60
2023/10/27 04:32:05;;;;;;;19.40;14.10;;;;;;;6.28;100.00;98433.10;105495;1257;71804;-60
2023/10/27 04:34:33;;;;;;;14.00;9.40;;;;;;;6.30;100.00;98433.83;105537;1254;69087;-59
2023/10/27 04:37:01;;;;;;;10.70;7.20;;;;;;;6.33;100.00;98433.17;105551;1253;67886;-59
2023/10/27 04:39:29;;;;;;;17.40;11.00;;;;;;;6.34;100.00;98437.45;105594;1256;74853;-60
2023/10/27 04:41:57;;;;;;;18.80;14.90;;;;;;;6.35;100.00;98436.05;105581;1254;80803;-59
2023/10/27 04:44:25;;;;;;;21.80;14.30;;;;;;;6.35;100.00;98434.27;105599;1257;71943;-60
2023/10/27 04:46:54;;;;;;;30.80;19.90;;;;;;;6.37;100.00;98436.61;105571;1255;69121;-59
2023/10/27 04:49:22;;;;;;;21.60;15.80;;;;;;;6.38;100.00;98439.34;105646;1256;69282;-65
2023/10/27 04:51:50;;;;;;;13.10;9.00;;;;;;;6.39;100.00;98445.52;105624;1253;74257;-58
2023/10/27 04:54:18;;;;;;;10.40;6.40;;;;;;;6.43;100.00;98438.22;105635;1252;82439;-58
2023/10/27 04:56:47;;;;;;;8.30;5.70;;;;;;;6.46;100.00;98429.02;105754;1253;70704;-59
2023/10/27 04:59:15;;;;;;;11.00;5.80;;;;;;;6.49;100.00;98428.71;105747;1253;69127;-59
2023/10/27 05:01:43;;;;;;;9.80;5.10;;;;;;;6.49;100.00;98424.02;105532;1254;69064;-58
2023/10/27 05:04:11;;;;;;;5.10;4.10;;;;;;;6.51;100.00;98417.70;105582;1256;75248;-59
2023/10/27 05:06:40;;;;;;;7.30;4.60;;;;;;;6.53;100.00;98421.24;105592;1255;81426;-60
2023/10/27 05:09:08;;;;;;;7.70;4.70;;;;;;;6.51;100.00;98422.36;105516;1253;72287;-60
2023/10/27 05:11:36;;;;;;;6.30;4.70;;;;;;;6.50;100.00;98420.66;105612;1254;69916;-59
2023/10/27 05:14:04;;;;;;;6.30;4.70;;;;;;;6.50;100.00;98417.90;105624;1255;69215;-59
2023/10/27 05:16:33;;;;;;;6.30;4.60;;;;;;;6.50;100.00;98420.30;105643;1253;71398;-59
2023/10/27 05:19:02;;;;;;;6.50;4.30;;;;;;;6.52;100.00;98420.75;105807;1252;81736;-60
2023/10/27 05:21:30;;;;;;;7.40;4.50;;;;;;;6.54;100.00;98418.19;105617;1257;71860;-59
2023/10/27 05:24:01;;;;;;;6.10;4.00;;;;;;;6.55;100.00;98418.15;105579;1256;69219;-59
2023/10/27 05:26:29;;;;;;;4.30;3.60;;;;;;;6.57;100.00;98415.45;105572;1253;69197;-60
2023/10/27 05:28:57;;;;;;;4.90;3.60;;;;;;;6.59;100.00;98413.06;105496;1256;72076;-59
2023/10/27 05:31:27;;;;;;;6.60;3.90;;;;;;;6.61;100.00;98416.11;105595;1256;83584;-59
2023/10/27 05:33:56;;;;;;;6.00;4.40;;;;;;;6.62;100.00;98421.08;105668;1253;73134;-59
2023/10/27 05:36:24;;;;;;;5.90;4.00;;;;;;;6.65;100.00;98422.29;105615;1257;69225;-58
2023/10/27 05:38:52;;;;;;;6.60;3.90;;;;;;;6.68;100.00;98423.52;105730;1256;69196;-62
2023/10/27 05:41:20;;;;;;;5.60;3.90;;;;;;;6.71;100.00;98422.32;105659;1256;71642;-60
2023/10/27 05:43:50;;;;;;;4.80;3.80;;;;;;;6.74;100.00;98425.66;105603;1253;81814;-60
2023/10/27 05:46:18;;;;;;;5.60;3.90;;;;;;;6.78;100.00;98426.87;105545;1257;71586;-60
2023/10/27 05:48:47;;;;;;;5.60;4.30;;;;;;;6.81;100.00;98421.80;105757;1256;69144;-60
2023/10/27 05:51:15;;;;;;;6.80;4.40;;;;;;;6.86;100.00;98413.91;105808;1255;69111;-59
2023/10/27 05:53:43;;;;;;;7.50;4.40;;;;;;;6.89;100.00;98414.23;105603;1254;74215;-59
2023/10/27 05:56:12;;;;;;;6.60;4.40;;;;;;;6.92;100.00;98419.64;105818;1255;81943;-59
2023/10/27 05:58:40;;;;;;;7.20;5.80;;;;;;;6.97;100.00;98418.71;105537;1253;71989;-59
2023/10/27 06:01:08;;;;;;;8.60;4.70;;;;;;;7.00;100.00;98419.05;105566;1255;69144;-59
2023/10/27 06:03:36;;;;;;;9.10;5.20;;;;;;;7.03;100.00;98419.05;105523;1255;69260;-59
2023/10/27 06:06:04;;;;;;;7.30;6.10;;;;;;;7.07;100.00;98419.39;105490;1252;74330;-58
2023/10/27 06:08:39;;;;;;;10.50;6.10;;;;;;;7.11;100.00;98421.77;105707;1253;81887;-59
2023/10/27 06:11:07;;;;;;;10.20;7.90;;;;;;;7.13;100.00;98423.22;105531;1253;70190;-62
2023/10/27 06:13:35;;;;;;;34.80;11.20;;;;;;;7.15;100.00;98425.34;105563;1253;69186;-58
2023/10/27 06:16:05;;;;;;;36.90;14.40;;;;;;;7.18;100.00;98418.80;105529;1253;69129;-59
2023/10/27 06:18:34;;;;;;;37.40;14.60;;;;;;;7.21;100.00;98420.72;105666;1253;73098;-59
2023/10/27 06:21:04;;;;;;;33.10;12.40;;;;;;;7.24;100.00;98415.50;105519;1253;82687;-59
2023/10/27 06:23:32;;;;;;;30.10;11.50;;;;;;;7.28;100.00;98414.58;105578;1254;71871;-62
2023/10/27 06:26:00;;;;;;;29.10;12.20;;;;;;;7.30;100.00;98411.48;105520;1254;69174;-59
2023/10/27 06:28:29;;;;;;;15.60;8.30;;;;;;;7.33;100.00;98406.11;105570;1257;69218;-61
2023/10/27 06:30:57;;;;;;;13.00;6.20;;;;;;;7.37;100.00;98409.69;105907;1253;74406;-59
2023/10/27 06:33:25;;;;;;;9.10;5.10;;;;;;;7.42;100.00;98415.69;105496;1255;81551;-59
2023/10/27 06:35:55;;;;;;;9.20;5.40;;;;;;;7.47;100.00;98418.36;105524;1253;71658;-59
2023/10/27 06:38:23;;;;;;;9.40;5.70;;;;;;;7.52;100.00;98422.61;105926;1253;69183;-59
2023/10/27 06:40:52;;;;;;;10.10;5.80;;;;;;;7.57;100.00;98423.88;105556;1253;69110;-59
2023/10/27 06:43:20;;;;;;;9.10;5.40;;;;;;;7.62;100.00;98417.04;105598;1253;73142;-59
2023/10/27 06:45:48;;;;;;;8.30;4.80;;;;;;;7.67;100.00;98419.66;105491;1253;81603;-59
2023/10/27 06:48:16;;;;;;;9.00;5.40;;;;;;;7.72;100.00;98424.80;105610;1254;72980;-60
2023/10/27 06:50:45;;;;;;;8.30;5.20;;;;;;;7.76;100.00;98425.05;105589;1253;69202;-59
2023/10/27 06:53:13;;;;;;;8.70;5.00;;;;;;;7.81;100.00;98422.50;105571;1255;69133;-60
2023/10/27 06:55:41;;;;;;;10.30;5.40;;;;;;;7.87;100.00;98427.23;105553;1253;74051;-60
2023/10/27 06:58:09;;;;;;;9.10;4.60;;;;;;;7.92;100.00;98427.48;105517;1255;81446;-60
2023/10/27 07:00:38;;;;;;;7.70;5.50;;;;;;;7.97;100.00;98430.85;105576;1255;71996;-58
2023/10/27 07:03:06;;;;;;;16.00;7.10;;;;;;;8.04;100.00;98431.31;105558;1253;69118;-58
2023/10/27 07:05:55;;;;;;;11.10;7.40;;;;;;;8.12;100.00;98428.26;105524;1255;69288;-58
2023/10/27 07:08:23;;;;;;;9.00;6.90;;;;;;;8.16;100.00;98428.71;105593;1255;72895;-58
2023/10/27 07:10:57;;;;;;;10.00;7.70;;;;;;;8.22;100.00;98425.55;105533;1256;82814;-58
2023/10/27 07:13:27;;;;;;;13.30;8.20;;;;;;;8.28;100.00;98428.48;105585;1255;71537;-58
2023/10/27 07:15:56;;;;;;;11.20;7.90;;;;;;;8.34;100.00;98428.48;105634;1254;69070;-58
2023/10/27 07:18:24;;;;;;;9.70;7.50;;;;;;;8.42;100.00;98427.52;105650;1256;69173;-58
2023/10/27 07:20:53;;;;;;;11.60;7.70;;;;;;;8.48;100.00;98420.05;105626;1256;73411;-58
2023/10/27 07:23:22;;;;;;;13.00;8.70;;;;;;;8.54;100.00;98421.45;105628;1252;80728;-58
2023/10/27 07:25:50;;;;;;;11.20;7.80;;;;;;;8.60;100.00;98415.33;105592;1255;73403;-58
2023/10/27 07:28:18;;;;;;;10.00;8.90;;;;;;;8.67;100.00;98413.13;105535;1253;69058;-58
2023/10/27 07:30:47;;;;;;;10.60;8.10;;;;;;;8.73;100.00;98412.96;105555;1252;69192;-58
2023/10/27 07:33:15;;;;;;;10.30;8.40;;;;;;;8.80;100.00;98413.02;105587;1252;72902;-58
2023/10/27 07:35:45;;;;;;;11.30;8.50;;;;;;;8.90;100.00;98413.98;105592;1256;81720;-58
2023/10/27 07:38:14;;;;;;;;;;;;;;;9.00;100.00;98414.08;105558;1255;73929;-58
2023/10/27 07:40:43;;;;;;;11.10;8.80;;;;;;;9.05;100.00;98417.05;105523;1255;69514;-58
2023/10/27 07:43:11;;;;;;;12.20;8.20;;;;;;;9.09;100.00;98415.40;105618;1255;69289;-58
2023/10/27 07:45:40;;;;;;;12.90;8.50;;;;;;;9.17;100.00;98411.81;105538;1255;73030;-58
2023/10/27 07:48:08;;;;;;;11.40;7.80;;;;;;;9.24;100.00;98409.63;105571;1253;83041;-58
2023/10/27 07:50:39;;;;;;;10.60;8.00;;;;;;;9.30;100.00;98404.20;105530;1253;71766;-58
2023/10/27 07:53:08;;;;;;;9.50;7.00;;;;;;;9.36;100.00;98403.08;105563;1253;69136;-58
2023/10/27 07:55:36;;;;;;;10.30;7.60;;;;;;;9.44;100.00;98401.02;105590;1255;69256;-58
2023/10/27 07:58:07;;;;;;;12.00;8.60;;;;;;;9.50;100.00;98396.96;105579;1252;73195;-58
2023/10/27 08:00:37;;;;;;;11.30;7.80;;;;;;;9.59;100.00;98393.42;105590;1253;81527;-58
2023/10/27 08:03:05;;;;;;;11.00;8.00;;;;;;;9.67;100.00;98393.09;105544;1253;72958;-58
2023/10/27 08:05:33;;;;;;;13.60;9.00;;;;;;;9.70;100.00;98392.72;105585;1254;69190;-58
2023/10/27 08:08:03;;;;;;;10.50;8.60;;;;;;;9.73;100.00;98398.06;105531;1253;69190;-58
2023/10/27 08:10:32;;;;;;;10.80;8.60;;;;;;;9.78;100.00;98396.02;105573;1253;73348;-58
2023/10/27 08:13:00;;;;;;;13.20;8.90;;;;;;;9.82;100.00;98391.50;105592;1256;81859;-58
2023/10/27 08:15:28;;;;;;;12.00;9.10;;;;;;;9.85;100.00;98386.67;105571;1253;73000;-63
2023/10/27 08:17:57;;;;;;;12.90;9.80;;;;;;;9.90;100.00;98380.96;105542;1255;69196;-63
2023/10/27 08:20:25;;;;;;;11.90;9.50;;;;;;;9.95;100.00;98374.84;105559;1254;69170;-63
2023/10/27 08:22:53;;;;;;;11.90;9.30;;;;;;;10.01;100.00;98374.42;105556;1253;74317;-63
2023/10/27 08:25:22;;;;;;;13.00;9.40;;;;;;;10.07;100.00;98377.15;105532;1255;82486;-65
2023/10/27 08:27:51;;;;;;;12.40;8.90;;;;;;;10.15;100.00;98384.70;105601;1253;71896;-64
2023/10/27 08:30:20;;;;;;;13.10;8.60;;;;;;;10.21;100.00;98386.34;105557;1253;69850;-64
2023/10/27 08:32:49;;;;;;;11.40;8.90;;;;;;;10.30;100.00;98389.77;105558;1255;69206;-64
2023/10/27 08:35:17;;;;;;;11.60;9.70;;;;;;;10.38;100.00;98397.98;105605;1253;73005;-63
2023/10/27 08:37:45;;;;;;;14.00;9.80;;;;;;;10.40;100.00;98395.89;105570;1253;80911;-63
2023/10/27 08:40:13;;;;;;;11.90;8.80;;;;;;;10.44;100.00;98396.19;105531;1252;71659;-63
2023/10/27 08:42:44;;;;;;;12.10;8.70;;;;;;;10.47;100.00;98402.38;105548;1255;69168;-63
2023/10/27 08:45:12;;;;;;;10.50;9.10;;;;;;;10.51;100.00;98401.30;105606;1253;69173;-64
2023/10/27 08:47:41;;;;;;;12.10;9.70;;;;;;;10.54;100.00;98403.67;105529;1253;72110;-64
2023/10/27 08:50:09;;;;;;;11.70;9.00;;;;;;;10.61;100.00;98398.86;105572;1255;83905;-64
2023/10/27 08:52:39;;;;;;;11.10;9.40;;;;;;;10.70;100.00;98396.48;105589;1253;72055;-63
2023/10/27 08:55:10;;;;;;;12.60;8.90;;;;;;;10.76;100.00;98397.67;105582;1255;69119;-64
2023/10/27 08:57:38;;;;;;;10.50;8.30;;;;;;;10.83;100.00;98392.46;105614;1253;69183;-63
2023/10/27 09:00:07;;;;;;;11.90;8.80;;;;;;;10.87;100.00;98389.00;105557;1253;73017;-63
2023/10/27 09:02:38;;;;;;;11.20;8.30;;;;;;;10.91;100.00;98391.33;105621;1253;83479;-63
2023/10/27 09:05:09;;;;;;;9.90;7.40;;;;;;;10.92;100.00;98390.02;105398;1255;169501;-64
2023/10/27 09:07:38;;;;;;;11.60;7.70;;;;;;;10.96;100.00;98387.48;105581;1255;69087;-64
2023/10/27 09:10:07;;;;;;;7.40;6.20;;;;;;;11.01;100.00;98388.38;105609;1255;69192;-63
2023/10/27 09:12:40;;;;;;;7.90;6.70;;;;;;;11.02;100.00;98386.70;105629;1253;73579;-63
2023/10/27 09:15:09;;;;;;;9.60;6.60;;;;;;;11.03;100.00;98389.63;105563;1253;82162;-63
2023/10/27 09:17:57;;;;;;;8.10;7.20;;;;;;;11.03;100.00;98385.63;105572;1255;71789;-64
2023/10/27 09:20:26;;;;;;;8.20;6.60;;;;;;;11.02;100.00;98386.73;105557;1255;69222;-63
2023/10/27 09:22:56;;;;;;;9.60;7.70;;;;;;;11.00;100.00;98388.80;105549;1253;69170;-63
2023/10/27 09:25:32;;;;;;;9.60;7.60;;;;;;;10.98;100.00;98394.14;105584;1253;74247;-63
2023/10/27 09:28:02;;;;;;;9.80;8.00;;;;;;;10.99;100.00;98396.58;105586;1253;81553;-65
2023/10/27 09:30:39;;;;;;;9.30;7.50;;;;;;;10.98;100.00;98401.71;105588;1255;73104;-64
2023/10/27 09:33:18;;;;;;;8.50;7.00;;;;;;;10.96;100.00;98401.11;105565;1254;69074;-63
2023/10/27 09:35:48;;;;;;;8.30;6.60;;;;;;;10.96;100.00;98402.66;105564;1253;69190;-65
2023/10/27 09:38:18;;;;;;;8.20;6.80;;;;;;;10.98;100.00;98403.27;105539;1253;73241;-64
2023/10/27 09:40:46;;;;;;;9.20;6.90;;;;;;;10.97;100.00;98405.92;105600;1253;81454;-63
2023/10/27 09:43:19;;;;;;;8.50;7.00;;;;;;;10.97;100.00;98401.41;105598;1253;70739;-63
2023/10/27 09:46:02;;;;;;;9.60;8.00;;;;;;;11.00;100.00;98394.91;105536;1256;69120;-63
2023/10/27 09:48:32;;;;;;;9.40;7.70;;;;;;;11.02;100.00;98388.96;105574;1253;69128;-63
2023/10/27 09:51:11;;;;;;;12.20;7.60;;;;;;;11.07;100.00;98386.67;105636;1253;74235;-63
2023/10/27 09:53:40;;;;;;;10.60;7.80;;;;;;;11.13;100.00;98382.75;105568;1253;82881;-64
2023/10/27 09:56:08;;;;;;;10.20;7.80;;;;;;;11.18;100.00;98382.98;105382;1252;72179;-63
2023/10/27 09:58:37;;;;;;;10.50;8.20;;;;;;;11.20;100.00;98380.88;105615;1253;69186;-63
2023/10/27 10:01:05;;;;;;;8.60;7.70;;;;;;;11.24;100.00;98380.63;105508;1253;69251;-63
2023/10/27 10:03:33;;;;;;;9.90;8.00;;;;;;;11.26;100.00;98378.33;105674;1254;74228;-63
2023/10/27 10:06:13;;;;;;;9.70;8.40;;;;;;;11.27;100.00;98374.80;105569;1251;81797;-63
2023/10/27 10:09:09;;;;;;;14.30;8.40;;;;;;;11.31;100.00;98375.38;105543;1252;73027;-63
2023/10/27 10:11:47;;;;;;;12.40;9.60;;;;;;;11.33;100.00;98379.92;105568;1252;69055;-64
2023/10/27 10:14:38;;;;;;;14.80;9.10;;;;;;;11.31;100.00;98378.20;105687;1255;69164;-63
2023/10/27 10:17:06;;;;;;;12.70;9.60;;;;;;;11.32;100.00;98371.59;105579;1256;72210;-63
2023/10/27 10:19:55;;;;;;;11.50;9.00;;;;;;;11.33;100.00;98371.55;105617;1252;82163;-63
2023/10/27 10:22:38;;;;;;;10.60;8.30;;;;;;;11.33;100.00;98368.06;105516;1253;73093;-63
2023/10/27 10:25:18;;;;;;;11.60;9.20;;;;;;;11.32;100.00;98366.20;105526;1253;69206;-63
2023/10/27 10:28:05;;;;;;;;;;;;;;;11.34;100.00;98360.46;105566;1253;69128;-63
2023/10/27 10:30:34;;;;;;;13.70;9.60;;;;;;;11.39;100.00;98355.70;105541;1253;74182;-63
2023/10/27 10:33:24;;;;;;;12.90;10.30;;;;;;;11.43;100.00;98354.91;105555;1256;82501;-63
2023/10/27 10:36:22;;;;;;;13.50;10.70;;;;;;;11.43;100.00;98353.48;105555;1252;71874;-63
2023/10/27 10:38:50;;;;;;;15.30;11.50;;;;;;;11.44;100.00;98355.51;105536;1255;69254;-64
2023/10/27 10:41:18;;;;;;;13.90;11.40;;;;;;;11.43;100.00;98354.71;105553;1252;69174;-64
2023/10/27 10:44:11;;;;;;;15.40;12.60;;;;;;;11.44;100.00;98350.31;105634;1255;73458;-63
2023/10/27 10:46:40;;;;;;;15.00;11.50;;;;;;;11.40;100.00;98345.52;105547;1253;81452;-66
2023/10/27 10:49:11;;;;;;;15.30;12.10;;;;;;;11.41;100.00;98347.52;105548;1255;72991;-64
2023/10/27 10:51:39;;;;;;;14.20;12.30;;;;;;;11.45;100.00;98347.96;105557;1255;69193;-66
2023/10/27 10:54:13;;;;;;;15.80;13.20;;;;;;;11.47;100.00;98341.88;105573;1255;69174;-66
2023/10/27 10:56:42;;;;;;;15.10;12.10;;;;;;;11.47;100.00;98331.17;105527;1253;74157;-65
2023/10/27 10:59:19;;;;;;;15.60;11.50;;;;;;;11.50;100.00;98330.63;105443;1259;82711;-65
2023/10/27 11:01:54;;;;;;;12.50;9.70;;;;;;;11.53;100.00;98327.41;105611;1253;72068;-64
2023/10/27 11:04:34;;;;;;;11.40;10.10;;;;;;;11.52;100.00;98321.58;105585;1256;69202;-64
2023/10/27 11:07:05;;;;;;;11.00;9.60;;;;;;;11.47;100.00;98318.02;105415;1257;69288;-64
2023/10/27 11:09:33;;;;;;;13.90;10.50;;;;;;;11.46;100.00;98315.73;105387;1257;72983;-64
2023/10/27 11:12:03;;;;;;;14.20;12.10;;;;;;;11.45;100.00;98318.42;105449;1260;82944;-64
2023/10/27 11:14:41;;;;;;;;;;;;;;;11.42;100.00;98316.00;105428;1257;73301;-66
2023/10/27 11:17:11;;;;;;;15.60;12.90;;;;;;;11.44;100.00;98313.39;105420;1257;69266;-62
2023/10/27 11:19:55;;;;;;;17.10;14.20;;;;;;;11.47;100.00;98320.54;105393;1258;69387;-63
2023/10/27 11:22:24;;;;;;;16.50;14.60;;;;;;;11.48;100.00;98316.80;105371;1258;72870;-64
2023/10/27 11:24:53;;;;;;;16.70;14.50;;;;;;;11.48;100.00;98315.87;105440;1255;82746;-64
2023/10/27 11:27:26;;;;;;;16.30;14.00;;;;;;;11.48;100.00;98316.27;105573;1253;72152;-64
2023/10/27 11:29:59;;;;;;;21.80;15.70;;;;;;;11.50;100.00;98316.27;105547;1253;69165;-64
2023/10/27 11:32:27;;;;;;;19.30;14.50;;;;;;;11.49;100.00;98318.42;105517;1253;69160;-63